createdAt,value
2018-07-14T00:02:19.639Z,8.67
2018-07-14T00:04:47.443Z,7.00
2018-07-14T00:07:15.172Z,6.17
2018-07-14T00:09:42.988Z,8.93
2018-07-14T00:12:10.807Z,7.13
2018-07-14T00:14:38.645Z,6.57
2018-07-14T00:17:06.519Z,7.37
2018-07-14T00:19:34.275Z,6.77
2018-07-14T00:22:02.064Z,9.20
2018-07-14T00:24:29.890Z,10.47
2018-07-14T00:26:57.615Z,6.80
2018-07-14T00:29:25.470Z,7.20
2018-07-14T00:31:53.240Z,9.77
2018-07-14T00:34:21.012Z,7.63
2018-07-14T00:36:48.785Z,7.50
2018-07-14T00:39:16.603Z,7.37
2018-07-14T00:41:44.349Z,7.77
2018-07-14T00:44:12.120Z,8.13
2018-07-14T00:46:39.947Z,7.40
2018-07-14T00:49:07.796Z,7.00
2018-07-14T00:51:35.555Z,9.83
2018-07-14T00:54:03.431Z,7.10
2018-07-14T00:56:31.216Z,6.63
2018-07-14T00:58:59.026Z,7.27
2018-07-14T01:01:26.867Z,7.60
2018-07-14T01:03:54.669Z,7.43
2018-07-14T01:06:22.507Z,10.40
2018-07-14T01:08:50.271Z,6.77
2018-07-14T01:11:18.012Z,10.37
2018-07-14T01:13:45.886Z,7.70
2018-07-14T01:16:13.723Z,8.20
2018-07-14T01:18:41.543Z,7.97
2018-07-14T01:21:09.374Z,7.83
2018-07-14T01:23:37.211Z,8.03
2018-07-14T01:26:05.528Z,7.40
2018-07-14T01:28:33.455Z,7.90
2018-07-14T01:31:01.318Z,7.83
2018-07-14T01:33:29.101Z,7.10
2018-07-14T01:35:56.874Z,7.80
2018-07-14T01:38:24.663Z,7.60
2018-07-14T01:40:52.474Z,8.87
2018-07-14T01:43:20.223Z,8.23
2018-07-14T01:45:48.000Z,7.17
2018-07-14T01:48:15.719Z,7.70
2018-07-14T01:50:43.519Z,9.03
2018-07-14T01:53:11.312Z,7.67
2018-07-14T01:55:39.132Z,8.53
2018-07-14T01:58:06.883Z,10.00
2018-07-14T02:00:34.691Z,7.83
2018-07-14T02:03:02.536Z,12.47
2018-07-14T02:05:30.324Z,9.80
2018-07-14T02:07:58.168Z,7.50
2018-07-14T02:10:25.964Z,8.87
2018-07-14T02:12:53.705Z,10.63
2018-07-14T02:15:21.516Z,9.07
2018-07-14T02:17:49.294Z,12.40
2018-07-14T02:20:17.250Z,9.20
2018-07-14T02:22:45.083Z,12.43
2018-07-14T02:25:12.901Z,9.80
2018-07-14T02:27:40.726Z,11.30
2018-07-14T02:30:08.486Z,8.40
2018-07-14T02:32:36.315Z,7.53
2018-07-14T02:35:04.206Z,9.27
2018-07-14T02:37:31.999Z,10.23
2018-07-14T02:39:59.820Z,9.70
2018-07-14T02:42:27.645Z,8.93
2018-07-14T02:44:55.424Z,8.60
2018-07-14T02:47:23.221Z,9.00
2018-07-14T02:49:51.039Z,8.63
2018-07-14T02:52:18.989Z,8.58
2018-07-14T02:54:47.083Z,10.20
2018-07-14T02:57:14.856Z,8.67
2018-07-14T02:59:42.741Z,10.43
2018-07-14T03:02:10.516Z,9.10
2018-07-14T03:04:38.307Z,9.57
2018-07-14T03:07:06.267Z,8.00
2018-07-14T03:09:34.179Z,9.10
2018-07-14T03:12:01.940Z,9.80
2018-07-14T03:14:29.767Z,9.83
2018-07-14T03:16:57.620Z,9.53
2018-07-14T03:19:25.471Z,8.60
2018-07-14T03:21:53.376Z,9.17
2018-07-14T03:24:21.268Z,10.03
2018-07-14T03:26:49.165Z,9.33
2018-07-14T03:29:16.944Z,9.30
2018-07-14T03:31:44.751Z,10.20
2018-07-14T03:34:12.560Z,9.07
2018-07-14T03:36:40.345Z,8.00
2018-07-14T03:39:08.175Z,8.60
2018-07-14T03:41:36.043Z,10.20
2018-07-14T03:44:03.853Z,10.00
2018-07-14T03:46:31.675Z,8.63
2018-07-14T03:48:59.499Z,7.87
2018-07-14T03:51:27.315Z,10.13
2018-07-14T03:53:55.144Z,10.93
2018-07-14T03:56:23.056Z,7.33
2018-07-14T03:58:50.802Z,12.53
2018-07-14T04:01:18.599Z,9.53
2018-07-14T04:03:46.340Z,7.30
2018-07-14T04:06:14.113Z,10.43
2018-07-14T04:08:41.947Z,10.43
2018-07-14T04:11:09.747Z,7.43
2018-07-14T04:13:37.588Z,10.57
2018-07-14T04:16:05.450Z,7.87
2018-07-14T04:18:33.299Z,9.40
2018-07-14T04:21:01.151Z,7.47
2018-07-14T04:23:29.000Z,8.93
2018-07-14T04:25:56.811Z,8.37
2018-07-14T04:28:24.575Z,9.27
2018-07-14T04:30:52.435Z,12.67
2018-07-14T04:33:20.260Z,7.77
2018-07-14T04:35:48.113Z,7.53
2018-07-14T04:38:15.921Z,8.33
2018-07-14T04:40:43.699Z,8.43
2018-07-14T04:43:11.516Z,10.10
2018-07-14T04:45:39.348Z,9.03
2018-07-14T04:48:07.147Z,7.90
2018-07-14T04:50:34.971Z,9.87
2018-07-14T04:53:02.834Z,8.53
2018-07-14T04:55:30.626Z,9.27
2018-07-14T04:57:58.513Z,7.73
2018-07-14T05:00:26.314Z,7.97
2018-07-14T05:02:54.108Z,10.57
2018-07-14T05:05:21.913Z,7.37
2018-07-14T05:07:49.718Z,7.43
2018-07-14T05:10:17.529Z,9.20
2018-07-14T05:12:45.360Z,7.97
2018-07-14T05:15:13.124Z,12.47
2018-07-14T05:17:40.963Z,8.87
2018-07-14T05:20:08.771Z,10.13
2018-07-14T05:22:36.558Z,10.10
2018-07-14T05:25:04.496Z,11.33
2018-07-14T05:27:32.235Z,7.83
2018-07-14T05:30:00.091Z,9.00
2018-07-14T05:32:27.912Z,8.57
2018-07-14T05:34:55.736Z,11.27
2018-07-14T05:37:23.555Z,8.57
2018-07-14T05:39:51.334Z,9.03
2018-07-14T05:42:19.126Z,9.43
2018-07-14T05:44:46.964Z,8.50
2018-07-14T05:47:14.900Z,8.77
2018-07-14T05:49:42.680Z,10.00
2018-07-14T05:52:10.553Z,9.17
2018-07-14T05:54:38.296Z,9.37
2018-07-14T05:57:06.139Z,10.77
2018-07-14T05:59:34.051Z,10.80
2018-07-14T06:02:01.844Z,7.83
2018-07-14T06:04:29.700Z,8.97
2018-07-14T06:06:57.545Z,10.97
2018-07-14T06:09:25.356Z,9.30
2018-07-14T06:11:53.124Z,8.40
2018-07-14T06:14:21.031Z,9.00
2018-07-14T06:16:48.788Z,9.70
2018-07-14T06:19:16.585Z,8.50
2018-07-14T06:21:44.451Z,8.37
2018-07-14T06:24:12.275Z,8.80
2018-07-14T06:26:40.020Z,8.47
2018-07-14T06:29:07.775Z,8.07
2018-07-14T06:31:35.625Z,8.33
2018-07-14T06:34:03.460Z,8.70
2018-07-14T06:36:31.308Z,10.50
2018-07-14T06:38:59.063Z,10.17
2018-07-14T06:41:26.966Z,7.90
2018-07-14T06:43:54.772Z,9.47
2018-07-14T06:46:22.644Z,7.77
2018-07-14T06:48:50.466Z,8.53
2018-07-14T06:51:18.282Z,9.17
2018-07-14T06:53:46.005Z,9.20
2018-07-14T06:56:13.796Z,10.43
2018-07-14T06:58:41.687Z,11.30
2018-07-14T07:01:09.544Z,6.93
2018-07-14T07:03:37.442Z,9.13
2018-07-14T07:06:05.304Z,7.70
2018-07-14T07:08:33.195Z,7.93
2018-07-14T07:11:01.003Z,6.30
2018-07-14T07:13:28.851Z,5.63
2018-07-14T07:15:56.659Z,6.77
2018-07-14T07:18:24.571Z,7.03
2018-07-14T07:20:52.383Z,7.20
2018-07-14T07:23:20.213Z,6.70
2018-07-14T07:25:50.232Z,8.03
2018-07-14T07:28:17.979Z,11.63
2018-07-14T07:30:45.763Z,9.73
2018-07-14T07:33:13.583Z,7.23
2018-07-14T07:35:41.479Z,7.30
2018-07-14T07:38:09.336Z,6.63
2018-07-14T07:40:37.141Z,5.83
2018-07-14T07:43:05.170Z,7.13
2018-07-14T07:45:33.007Z,8.90
2018-07-14T07:48:00.766Z,7.07
2018-07-14T07:50:28.551Z,7.00
2018-07-14T07:52:56.355Z,6.27
2018-07-14T07:55:24.161Z,6.90
2018-07-14T07:57:51.950Z,6.20
2018-07-14T08:00:19.723Z,7.50
2018-07-14T08:02:47.556Z,6.57
2018-07-14T08:05:15.335Z,6.47
2018-07-14T08:07:43.171Z,7.90
2018-07-14T08:10:11.021Z,5.20
2018-07-14T08:12:38.900Z,5.67
2018-07-14T08:15:06.776Z,6.73
2018-07-14T08:17:34.592Z,6.33
2018-07-14T08:20:02.423Z,7.57
2018-07-14T08:22:30.268Z,6.47
2018-07-14T08:24:58.189Z,5.57
2018-07-14T08:27:25.976Z,5.90
2018-07-14T08:29:53.799Z,6.40
2018-07-14T08:32:21.684Z,5.97
2018-07-14T08:34:49.464Z,6.27
2018-07-14T08:37:17.264Z,5.17
2018-07-14T08:39:45.095Z,5.57
2018-07-14T08:42:12.827Z,6.03
2018-07-14T08:44:40.696Z,5.90
2018-07-14T08:47:08.599Z,5.70
2018-07-14T08:49:36.400Z,6.00
2018-07-14T08:52:04.263Z,6.07
2018-07-14T08:54:32.076Z,5.50
2018-07-14T08:56:59.984Z,5.57
2018-07-14T08:59:27.783Z,5.67
2018-07-14T09:01:55.585Z,4.40
2018-07-14T09:04:23.399Z,6.40
2018-07-14T09:06:51.356Z,4.37
2018-07-14T09:09:19.111Z,5.80
2018-07-14T09:11:46.931Z,4.03
2018-07-14T09:14:14.771Z,4.93
2018-07-14T09:16:42.585Z,7.03
2018-07-14T09:19:10.504Z,5.43
2018-07-14T09:21:38.424Z,3.43
2018-07-14T09:24:06.287Z,5.70
2018-07-14T09:26:34.163Z,4.20
2018-07-14T09:29:01.983Z,3.83
2018-07-14T09:31:29.771Z,4.97
2018-07-14T09:33:57.592Z,5.60
2018-07-14T09:36:25.486Z,5.23
2018-07-14T09:38:53.292Z,3.47
2018-07-14T09:41:21.091Z,3.83
2018-07-14T09:43:48.879Z,6.57
2018-07-14T09:46:16.740Z,4.97
2018-07-14T09:48:44.566Z,4.43
2018-07-14T09:51:12.387Z,3.70
2018-07-14T09:53:40.230Z,4.37
2018-07-14T09:56:08.019Z,3.53
2018-07-14T09:58:35.843Z,3.07
2018-07-14T10:01:06.599Z,4.10
2018-07-14T10:03:34.764Z,3.93
2018-07-14T10:06:02.634Z,3.40
2018-07-14T10:08:30.958Z,3.17
2018-07-14T10:10:58.836Z,7.00
2018-07-14T10:13:26.783Z,4.57
2018-07-14T10:15:54.967Z,3.67
2018-07-14T10:18:23.043Z,3.30
2018-07-14T10:20:50.992Z,3.00
2018-07-14T10:23:18.959Z,3.23
2018-07-14T10:25:46.998Z,4.77
2018-07-14T10:28:14.567Z,2.93
2018-07-14T10:30:42.355Z,4.03
2018-07-14T10:33:10.382Z,4.40
2018-07-14T10:35:38.232Z,3.90
2018-07-14T10:38:06.300Z,3.03
2018-07-14T10:40:34.415Z,3.80
2018-07-14T10:43:02.250Z,3.30
2018-07-14T10:45:30.051Z,3.30
2018-07-14T10:47:57.844Z,3.23
2018-07-14T10:50:25.647Z,4.53
2018-07-14T10:52:53.395Z,4.30
2018-07-14T10:55:21.192Z,4.93
2018-07-14T10:57:49.129Z,3.12
2018-07-14T11:00:17.692Z,3.42
2018-07-14T11:02:45.552Z,2.72
2018-07-14T11:05:13.370Z,3.30
2018-07-14T11:07:41.172Z,3.20
2018-07-14T11:10:08.930Z,3.05
2018-07-14T11:12:36.916Z,3.80
2018-07-14T11:15:04.858Z,2.80
2018-07-14T11:17:32.771Z,3.87
2018-07-14T11:20:00.588Z,3.80
2018-07-14T11:22:28.397Z,3.70
2018-07-14T11:24:56.161Z,4.17
2018-07-14T11:27:23.979Z,3.50
2018-07-14T11:29:51.779Z,3.20
2018-07-14T11:32:19.619Z,3.10
2018-07-14T11:34:47.407Z,3.70
2018-07-14T11:37:15.226Z,3.20
2018-07-14T11:39:42.954Z,2.80
2018-07-14T11:42:10.836Z,3.00
2018-07-14T11:44:38.659Z,2.85
2018-07-14T11:47:06.585Z,2.67
2018-07-14T11:49:34.415Z,7.53
2018-07-14T11:52:02.263Z,3.45
2018-07-14T11:54:30.371Z,2.95
2018-07-14T11:56:58.249Z,2.72
2018-07-14T11:59:26.302Z,3.98
2018-07-14T12:01:54.167Z,2.83
2018-07-14T12:04:21.911Z,3.00
2018-07-14T12:06:49.738Z,4.03
2018-07-14T12:09:17.531Z,3.05
2018-07-14T12:11:45.391Z,2.37
2018-07-14T12:14:13.311Z,3.02
2018-07-14T12:16:41.035Z,2.90
2018-07-14T12:19:08.842Z,2.72
2018-07-14T12:21:36.674Z,4.25
2018-07-14T12:24:04.756Z,3.15
2018-07-14T12:26:32.633Z,2.87
2018-07-14T12:29:00.363Z,2.90
2018-07-14T12:31:28.159Z,3.08
2018-07-14T12:33:55.928Z,2.92
2018-07-14T12:36:23.763Z,2.77
2018-07-14T12:38:51.589Z,5.90
2018-07-14T12:41:19.416Z,5.00
2018-07-14T12:43:47.332Z,3.58
2018-07-14T12:46:15.141Z,3.37
2018-07-14T12:48:42.935Z,3.00
2018-07-14T12:51:10.683Z,3.22
2018-07-14T12:53:38.565Z,4.15
2018-07-14T12:56:06.423Z,5.03
2018-07-14T12:58:34.277Z,3.40
2018-07-14T13:01:02.096Z,3.05
2018-07-14T13:03:29.932Z,3.58
2018-07-14T13:05:57.805Z,5.10
2018-07-14T13:08:25.638Z,2.77
2018-07-14T13:10:53.423Z,3.17
2018-07-14T13:13:21.243Z,5.00
2018-07-14T13:15:49.115Z,3.27
2018-07-14T13:18:16.880Z,3.37
2018-07-14T13:20:44.891Z,4.08
2018-07-14T13:23:12.731Z,3.12
2018-07-14T13:25:40.575Z,2.95
2018-07-14T13:28:08.275Z,4.08
2018-07-14T13:30:36.119Z,4.17
2018-07-14T13:33:04.160Z,3.40
2018-07-14T13:35:31.992Z,3.25
2018-07-14T13:37:59.840Z,3.00
2018-07-14T13:40:27.703Z,3.87
2018-07-14T13:42:55.593Z,3.97
2018-07-14T13:45:23.754Z,4.20
2018-07-14T13:47:51.620Z,3.00
2018-07-14T13:50:19.474Z,3.03
2018-07-14T13:52:47.257Z,3.20
2018-07-14T13:55:15.104Z,3.43
2018-07-14T13:57:42.940Z,5.17
2018-07-14T14:00:10.844Z,3.07
2018-07-14T14:02:38.627Z,3.27
2018-07-14T14:05:06.528Z,3.13
2018-07-14T14:07:34.423Z,3.13
2018-07-14T14:10:02.272Z,3.80
2018-07-14T14:12:31.243Z,2.70
2018-07-14T14:14:59.023Z,4.20
2018-07-14T14:17:26.897Z,4.90
2018-07-14T14:19:55.317Z,3.73
2018-07-14T14:22:23.025Z,3.07
2018-07-14T14:24:50.769Z,3.10
2018-07-14T14:27:18.564Z,2.97
2018-07-14T14:29:46.371Z,4.73
2018-07-14T14:32:14.843Z,3.53
2018-07-14T14:34:42.708Z,3.10
2018-07-14T14:37:10.549Z,4.63
2018-07-14T14:39:38.355Z,4.43
2018-07-14T14:42:06.488Z,3.80
2018-07-14T14:44:34.224Z,4.27
2018-07-14T14:47:02.096Z,3.27
2018-07-14T14:49:29.944Z,4.63
2018-07-14T14:51:57.779Z,3.23
2018-07-14T14:54:25.601Z,3.23
2018-07-14T14:56:53.439Z,3.20
2018-07-14T14:59:21.266Z,3.30
2018-07-14T15:01:49.000Z,3.53
2018-07-14T15:04:16.839Z,4.47
2018-07-14T15:06:44.635Z,3.40
2018-07-14T15:09:12.527Z,5.23
2018-07-14T15:11:40.363Z,5.37
2018-07-14T15:14:08.196Z,3.50
2018-07-14T15:16:36.008Z,4.23
2018-07-14T15:19:03.805Z,4.60
2018-07-14T15:21:31.571Z,2.87
2018-07-14T15:23:59.431Z,3.67
2018-07-14T15:26:28.112Z,4.63
2018-07-14T15:28:55.903Z,3.30
2018-07-14T15:31:24.070Z,2.87
2018-07-14T15:33:51.882Z,3.67
2018-07-14T15:36:19.703Z,7.57
2018-07-14T15:38:47.544Z,3.10
2018-07-14T15:41:15.421Z,5.13
2018-07-14T15:43:43.293Z,3.10
2018-07-14T15:46:11.135Z,3.33
2018-07-14T15:48:39.023Z,3.20
2018-07-14T15:51:06.887Z,3.10
2018-07-14T15:53:34.626Z,3.00
2018-07-14T15:56:02.531Z,3.40
2018-07-14T15:58:30.368Z,4.83
2018-07-14T16:00:58.171Z,4.80
2018-07-14T16:03:25.965Z,3.43
2018-07-14T16:05:53.779Z,3.03
2018-07-14T16:08:21.583Z,3.33
2018-07-14T16:10:49.638Z,2.73
2018-07-14T16:13:17.367Z,5.33
2018-07-14T16:15:45.188Z,3.63
2018-07-14T16:18:12.948Z,3.70
2018-07-14T16:20:40.696Z,3.20
2018-07-14T16:23:08.471Z,4.53
2018-07-14T16:25:36.362Z,3.20
2018-07-14T16:28:04.148Z,3.20
2018-07-14T16:30:31.931Z,3.17
2018-07-14T16:32:59.692Z,3.30
2018-07-14T16:35:27.517Z,3.40
2018-07-14T16:37:55.336Z,2.80
2018-07-14T16:40:23.083Z,3.97
2018-07-14T16:42:51.438Z,3.30
2018-07-14T16:45:19.296Z,3.77
2018-07-14T16:47:47.108Z,3.83
2018-07-14T16:50:24.873Z,3.30
2018-07-14T16:52:52.951Z,3.20
2018-07-14T16:55:20.804Z,5.13
2018-07-14T16:57:48.643Z,4.20
2018-07-14T17:00:16.423Z,4.30
2018-07-14T17:02:44.234Z,4.73
2018-07-14T17:05:12.096Z,3.27
2018-07-14T17:07:39.903Z,3.40
2018-07-14T17:10:07.779Z,4.33
2018-07-14T17:12:35.583Z,3.27
2018-07-14T17:15:03.435Z,3.57
2018-07-14T17:17:31.207Z,4.23
2018-07-14T17:19:58.975Z,3.97
2018-07-14T17:22:26.784Z,4.53
2018-07-14T17:24:54.599Z,4.13
2018-07-14T17:27:22.395Z,3.30
2018-07-14T17:29:50.148Z,4.43
2018-07-14T17:32:17.995Z,4.00
2018-07-14T17:34:45.924Z,4.00
2018-07-14T17:37:13.725Z,4.17
2018-07-14T17:39:41.524Z,5.00
2018-07-14T17:42:09.363Z,5.17
2018-07-14T17:44:37.144Z,3.73
2018-07-14T17:47:05.201Z,3.87
2018-07-14T17:49:32.970Z,4.17
2018-07-14T17:52:00.917Z,3.33
2018-07-14T17:54:28.551Z,4.83
2018-07-14T17:56:56.426Z,3.47
2018-07-14T17:59:24.228Z,4.47
2018-07-14T18:01:52.055Z,3.40
2018-07-14T18:04:19.855Z,6.50
2018-07-14T18:06:47.649Z,3.60
2018-07-14T18:09:15.580Z,3.70
2018-07-14T18:11:43.380Z,3.63
2018-07-14T18:14:11.216Z,3.70
2018-07-14T18:16:39.097Z,4.00
2018-07-14T18:19:07.110Z,3.90
2018-07-14T18:21:34.983Z,5.17
2018-07-14T18:24:02.799Z,4.90
2018-07-14T18:26:30.632Z,7.40
2018-07-14T18:28:58.427Z,4.07
2018-07-14T18:31:26.248Z,7.80
2018-07-14T18:33:54.034Z,4.90
2018-07-14T18:36:21.852Z,7.67
2018-07-14T18:38:49.680Z,4.80
2018-07-14T18:41:17.496Z,5.37
2018-07-14T18:43:45.343Z,6.17
2018-07-14T18:46:13.699Z,5.43
2018-07-14T18:48:41.506Z,4.33
2018-07-14T18:51:09.299Z,5.77
2018-07-14T18:53:37.180Z,4.10
2018-07-14T18:56:05.314Z,4.90
2018-07-14T18:58:33.158Z,7.90
2018-07-14T19:01:00.895Z,4.80
2018-07-14T19:03:28.755Z,3.97
2018-07-14T19:05:56.555Z,3.83
2018-07-14T19:08:24.528Z,5.13
2018-07-14T19:10:52.377Z,4.77
2018-07-14T19:13:20.158Z,4.63
2018-07-14T19:15:48.057Z,6.73
2018-07-14T19:18:15.866Z,5.43
2018-07-14T19:20:43.748Z,8.10
2018-07-14T19:23:11.540Z,6.50
2018-07-14T19:25:39.384Z,4.93
2018-07-14T19:28:07.244Z,4.60
2018-07-14T19:30:35.095Z,4.17
2018-07-14T19:33:03.036Z,4.43
2018-07-14T19:35:30.882Z,5.70
2018-07-14T19:37:58.705Z,7.33
2018-07-14T19:40:26.535Z,6.03
2018-07-14T19:42:54.315Z,6.80
2018-07-14T19:45:22.095Z,7.57
2018-07-14T19:47:50.076Z,8.37
2018-07-14T19:50:17.881Z,10.10
2018-07-14T19:52:45.648Z,5.90
2018-07-14T19:55:13.443Z,7.73
2018-07-14T19:57:41.279Z,9.43
2018-07-14T20:00:09.248Z,4.07
2018-07-14T20:02:37.103Z,4.43
2018-07-14T20:05:04.964Z,5.20
2018-07-14T20:07:32.740Z,10.87
2018-07-14T20:10:00.686Z,9.93
2018-07-14T20:12:29.832Z,6.50
2018-07-14T20:14:57.713Z,5.10
2018-07-14T20:17:25.531Z,9.37
2018-07-14T20:19:53.331Z,5.93
2018-07-14T20:22:21.180Z,10.60
2018-07-14T20:24:48.988Z,9.07
2018-07-14T20:27:16.823Z,6.90
2018-07-14T20:29:44.684Z,9.03
2018-07-14T20:32:12.508Z,12.47
2018-07-14T20:34:40.277Z,7.63
2018-07-14T20:37:08.315Z,6.57
2018-07-14T20:39:36.099Z,9.97
2018-07-14T20:42:04.396Z,7.50
2018-07-14T20:44:32.483Z,7.77
2018-07-14T20:47:00.403Z,7.80
2018-07-14T20:49:28.271Z,8.00
2018-07-14T20:51:56.086Z,6.27
2018-07-14T20:54:23.912Z,6.47
2018-07-14T20:56:51.803Z,6.40
2018-07-14T20:59:19.724Z,5.93
2018-07-14T21:01:47.520Z,7.23
2018-07-14T21:04:15.384Z,5.80
2018-07-14T21:06:43.253Z,5.63
2018-07-14T21:09:11.055Z,6.83
2018-07-14T21:11:38.832Z,6.80
2018-07-14T21:14:06.566Z,6.53
2018-07-14T21:16:34.428Z,5.87
2018-07-14T21:19:02.335Z,8.37
2018-07-14T21:21:30.148Z,6.23
2018-07-14T21:23:57.968Z,6.17
2018-07-14T21:26:25.867Z,8.27
2018-07-14T21:28:53.656Z,6.50
2018-07-14T21:31:21.532Z,7.83
2018-07-14T21:33:49.359Z,5.87
2018-07-14T21:36:17.123Z,6.13
2018-07-14T21:38:44.967Z,6.20
2018-07-14T21:41:12.967Z,6.80
2018-07-14T21:43:40.744Z,6.77
2018-07-14T21:46:08.520Z,6.83
2018-07-14T21:48:36.271Z,9.60
2018-07-14T21:51:04.322Z,7.40
2018-07-14T21:53:32.128Z,7.10
2018-07-14T21:55:59.867Z,6.93
2018-07-14T21:58:27.643Z,10.57
2018-07-14T22:01:04.692Z,6.83
2018-07-14T22:03:34.161Z,7.13
2018-07-14T22:06:02.438Z,6.93
2018-07-14T22:08:30.164Z,8.00
2018-07-14T22:10:58.036Z,6.87
2018-07-14T22:13:25.867Z,7.20
2018-07-14T22:15:54.387Z,8.87
2018-07-14T22:18:22.204Z,8.93
2018-07-14T22:20:50.040Z,9.87
2018-07-14T22:23:17.902Z,6.97
2018-07-14T22:25:45.692Z,7.73
2018-07-14T22:28:13.609Z,7.47
2018-07-14T22:30:41.465Z,7.73
2018-07-14T22:33:09.292Z,9.07
2018-07-14T22:35:37.068Z,10.60
2018-07-14T22:38:05.189Z,7.43
2018-07-14T22:40:33.027Z,7.90
2018-07-14T22:43:00.842Z,8.00
2018-07-14T22:45:28.560Z,7.47
2018-07-14T22:47:56.487Z,9.23
2018-07-14T22:50:24.352Z,8.00
2018-07-14T22:52:52.604Z,6.70
2018-07-14T22:55:20.373Z,7.13
2018-07-14T22:57:48.171Z,7.43
2018-07-14T23:00:15.956Z,8.53
2018-07-14T23:02:44.775Z,9.00
2018-07-14T23:05:12.575Z,9.17
2018-07-14T23:07:40.367Z,7.93
2018-07-14T23:10:08.215Z,8.03
2018-07-14T23:12:36.108Z,9.00
2018-07-14T23:15:03.959Z,8.70
2018-07-14T23:17:31.692Z,8.70
2018-07-14T23:19:59.442Z,7.07
2018-07-14T23:22:27.296Z,8.03
2018-07-14T23:24:55.080Z,8.47
2018-07-14T23:27:23.256Z,7.50
2018-07-14T23:29:51.057Z,8.53
2018-07-14T23:32:18.840Z,8.53
2018-07-14T23:34:46.690Z,8.43
2018-07-14T23:37:14.576Z,7.93
2018-07-14T23:39:42.380Z,8.93
2018-07-14T23:42:10.159Z,8.20
2018-07-14T23:44:37.912Z,8.40
2018-07-14T23:47:05.788Z,10.20
2018-07-14T23:49:33.575Z,7.97
2018-07-14T23:52:01.374Z,8.10
2018-07-14T23:54:29.157Z,7.60
2018-07-14T23:56:56.956Z,10.10
2018-07-14T23:59:24.802Z,8.87
